sensor_id;sensor_type;location;lat;lon;timestamp;temperature;humidity
37410;DHT22;23275;48.914;12.566;2022-10-31T00:00:18;9.40;99.90
37410;DHT22;23275;48.914;12.566;2022-10-31T00:02:44;9.40;99.90
37410;DHT22;23275;48.914;12.566;2022-10-31T00:05:09;9.30;99.90
37410;DHT22;23275;48.914;12.566;2022-10-31T00:07:35;9.30;99.90
37410;DHT22;23275;48.914;12.566;2022-10-31T00:10:00;9.20;99.90
37410;DHT22;23275;48.914;12.566;2022-10-31T00:12:26;9.10;99.90
37410;DHT22;23275;48.914;12.566;2022-10-31T00:14:52;9.10;99.90
37410;DHT22;23275;48.914;12.566;2022-10-31T00:17:17;9.00;99.90
37410;DHT22;23275;48.914;12.566;2022-10-31T00:19:43;9.00;99.90
37410;DHT22;23275;48.914;12.566;2022-10-31T00:22:08;9.00;99.90
37410;DHT22;23275;48.914;12.566;2022-10-31T00:24:34;9.00;99.90
37410;DHT22;23275;48.914;12.566;2022-10-31T00:27:00;9.00;99.90
37410;DHT22;23275;48.914;12.566;2022-10-31T00:29:25;9.00;99.90
37410;DHT22;23275;48.914;12.566;2022-10-31T00:31:52;9.00;99.90
37410;DHT22;23275;48.914;12.566;2022-10-31T00:34:18;8.90;99.90
37410;DHT22;23275;48.914;12.566;2022-10-31T00:36:43;8.90;99.90
37410;DHT22;23275;48.914;12.566;2022-10-31T00:39:09;8.90;99.90
37410;DHT22;23275;48.914;12.566;2022-10-31T00:41:34;8.80;99.90
37410;DHT22;23275;48.914;12.566;2022-10-31T00:44:00;8.80;99.90
37410;DHT22;23275;48.914;12.566;2022-10-31T00:46:25;8.80;99.90
37410;DHT22;23275;48.914;12.566;2022-10-31T00:48:51;8.80;99.90
37410;DHT22;23275;48.914;12.566;2022-10-31T00:51:17;8.80;99.90
37410;DHT22;23275;48.914;12.566;2022-10-31T00:53:42;8.70;99.90
37410;DHT22;23275;48.914;12.566;2022-10-31T00:56:08;8.70;99.90
37410;DHT22;23275;48.914;12.566;2022-10-31T00:58:33;8.70;99.90
37410;DHT22;23275;48.914;12.566;2022-10-31T01:00:59;8.70;99.90
37410;DHT22;23275;48.914;12.566;2022-10-31T01:03:27;8.60;99.90
37410;DHT22;23275;48.914;12.566;2022-10-31T01:06:19;8.60;99.90
37410;DHT22;23275;48.914;12.566;2022-10-31T01:08:47;8.50;99.90
37410;DHT22;23275;48.914;12.566;2022-10-31T01:11:18;8.50;99.90
37410;DHT22;23275;48.914;12.566;2022-10-31T01:13:45;8.50;99.90
37410;DHT22;23275;48.914;12.566;2022-10-31T01:16:13;8.50;99.90
37410;DHT22;23275;48.914;12.566;2022-10-31T01:18:39;8.50;99.90
37410;DHT22;23275;48.914;12.566;2022-10-31T01:21:25;8.40;99.90
37410;DHT22;23275;48.914;12.566;2022-10-31T01:23:53;8.40;99.90
37410;DHT22;23275;48.914;12.566;2022-10-31T01:26:24;8.40;99.90
37410;DHT22;23275;48.914;12.566;2022-10-31T01:28:56;8.40;99.90
37410;DHT22;23275;48.914;12.566;2022-10-31T01:31:24;8.40;99.90
37410;DHT22;23275;48.914;12.566;2022-10-31T01:33:50;8.40;99.90
37410;DHT22;23275;48.914;12.566;2022-10-31T01:36:38;8.40;99.90
37410;DHT22;23275;48.914;12.566;2022-10-31T01:39:14;8.40;99.90
37410;DHT22;23275;48.914;12.566;2022-10-31T01:41:44;8.40;99.90
37410;DHT22;23275;48.914;12.566;2022-10-31T01:47:05;8.40;99.90
37410;DHT22;23275;48.914;12.566;2022-10-31T01:49:34;8.40;99.90
37410;DHT22;23275;48.914;12.566;2022-10-31T01:52:04;8.40;99.90
37410;DHT22;23275;48.914;12.566;2022-10-31T01:54:34;8.50;99.90
37410;DHT22;23275;48.914;12.566;2022-10-31T01:57:02;8.50;99.90
37410;DHT22;23275;48.914;12.566;2022-10-31T01:59:32;8.60;99.90
37410;DHT22;23275;48.914;12.566;2022-10-31T02:02:00;8.70;99.90
37410;DHT22;23275;48.914;12.566;2022-10-31T02:04:26;8.70;99.90
37410;DHT22;23275;48.914;12.566;2022-10-31T02:07:02;8.80;99.90
37410;DHT22;23275;48.914;12.566;2022-10-31T02:09:30;8.80;99.90
37410;DHT22;23275;48.914;12.566;2022-10-31T02:11:58;8.90;99.90
37410;DHT22;23275;48.914;12.566;2022-10-31T02:14:26;8.90;99.90
37410;DHT22;23275;48.914;12.566;2022-10-31T02:16:56;8.90;99.90
37410;DHT22;23275;48.914;12.566;2022-10-31T02:19:35;8.90;99.90
37410;DHT22;23275;48.914;12.566;2022-10-31T02:22:37;8.90;99.90
37410;DHT22;23275;48.914;12.566;2022-10-31T02:25:11;8.90;99.90
37410;DHT22;23275;48.914;12.566;2022-10-31T02:33:38;8.80;99.90
37410;DHT22;23275;48.914;12.566;2022-10-31T02:39:11;8.80;99.90
37410;DHT22;23275;48.914;12.566;2022-10-31T02:41:49;8.70;99.90
37410;DHT22;23275;48.914;12.566;2022-10-31T02:46:59;8.80;99.90
37410;DHT22;23275;48.914;12.566;2022-10-31T02:52:30;8.70;99.90
37410;DHT22;23275;48.914;12.566;2022-10-31T02:54:56;8.60;99.90
37410;DHT22;23275;48.914;12.566;2022-10-31T02:57:31;8.60;99.90
37410;DHT22;23275;48.914;12.566;2022-10-31T03:00:02;8.60;99.90
37410;DHT22;23275;48.914;12.566;2022-10-31T03:08:08;8.50;99.90
37410;DHT22;23275;48.914;12.566;2022-10-31T03:10:54;8.50;99.90
37410;DHT22;23275;48.914;12.566;2022-10-31T03:13:58;8.50;99.90
37410;DHT22;23275;48.914;12.566;2022-10-31T03:16:33;8.50;99.90
37410;DHT22;23275;48.914;12.566;2022-10-31T03:19:08;8.50;99.90
37410;DHT22;23275;48.914;12.566;2022-10-31T03:21:44;8.60;99.90
37410;DHT22;23275;48.914;12.566;2022-10-31T03:24:11;8.60;99.90
37410;DHT22;23275;48.914;12.566;2022-10-31T03:26:39;8.60;99.90
37410;DHT22;23275;48.914;12.566;2022-10-31T03:29:08;8.70;99.90
37410;DHT22;23275;48.914;12.566;2022-10-31T03:31:57;8.70;99.90
37410;DHT22;23275;48.914;12.566;2022-10-31T03:34:23;8.70;99.90
37410;DHT22;23275;48.914;12.566;2022-10-31T03:36:52;8.80;99.90
37410;DHT22;23275;48.914;12.566;2022-10-31T03:39:20;8.80;99.90
37410;DHT22;23275;48.914;12.566;2022-10-31T03:44:46;8.90;99.90
37410;DHT22;23275;48.914;12.566;2022-10-31T03:47:13;8.90;99.90
37410;DHT22;23275;48.914;12.566;2022-10-31T03:49:39;8.90;99.90
37410;DHT22;23275;48.914;12.566;2022-10-31T03:54:57;9.00;99.90
37410;DHT22;23275;48.914;12.566;2022-10-31T03:57:32;9.00;99.90
37410;DHT22;23275;48.914;12.566;2022-10-31T04:00:08;9.00;99.90
37410;DHT22;23275;48.914;12.566;2022-10-31T04:02:38;9.00;99.90
37410;DHT22;23275;48.914;12.566;2022-10-31T04:05:06;8.90;99.90
37410;DHT22;23275;48.914;12.566;2022-10-31T04:07:37;9.00;99.90
37410;DHT22;23275;48.914;12.566;2022-10-31T04:10:08;8.90;99.90
37410;DHT22;23275;48.914;12.566;2022-10-31T04:12:35;8.90;99.90
37410;DHT22;23275;48.914;12.566;2022-10-31T04:15:04;9.00;99.90
37410;DHT22;23275;48.914;12.566;2022-10-31T04:17:33;9.00;99.90
37410;DHT22;23275;48.914;12.566;2022-10-31T04:20:01;8.90;99.90
37410;DHT22;23275;48.914;12.566;2022-10-31T04:22:27;8.90;99.90
37410;DHT22;23275;48.914;12.566;2022-10-31T04:24:53;8.90;99.90
37410;DHT22;23275;48.914;12.566;2022-10-31T04:27:18;8.90;99.90
37410;DHT22;23275;48.914;12.566;2022-10-31T04:29:44;8.90;99.90
37410;DHT22;23275;48.914;12.566;2022-10-31T04:32:09;8.80;99.90
37410;DHT22;23275;48.914;12.566;2022-10-31T04:34:35;8.80;99.90
37410;DHT22;23275;48.914;12.566;2022-10-31T04:37:01;8.80;99.90
37410;DHT22;23275;48.914;12.566;2022-10-31T04:39:26;8.90;99.90
37410;DHT22;23275;48.914;12.566;2022-10-31T04:41:52;8.80;99.90
37410;DHT22;23275;48.914;12.566;2022-10-31T04:44:17;8.90;99.90
37410;DHT22;23275;48.914;12.566;2022-10-31T04:46:43;8.90;99.90
37410;DHT22;23275;48.914;12.566;2022-10-31T04:49:08;8.90;99.90
37410;DHT22;23275;48.914;12.566;2022-10-31T04:51:35;8.80;99.90
37410;DHT22;23275;48.914;12.566;2022-10-31T04:54:01;8.70;99.90
37410;DHT22;23275;48.914;12.566;2022-10-31T04:56:26;8.60;99.90
37410;DHT22;23275;48.914;12.566;2022-10-31T04:58:52;8.60;99.90
37410;DHT22;23275;48.914;12.566;2022-10-31T05:01:17;8.50;99.90
37410;DHT22;23275;48.914;12.566;2022-10-31T05:03:43;8.50;99.90
37410;DHT22;23275;48.914;12.566;2022-10-31T05:06:08;8.40;99.90
37410;DHT22;23275;48.914;12.566;2022-10-31T05:08:34;8.50;99.90
37410;DHT22;23275;48.914;12.566;2022-10-31T05:11:01;8.50;99.90
37410;DHT22;23275;48.914;12.566;2022-10-31T05:13:29;8.60;99.90
37410;DHT22;23275;48.914;12.566;2022-10-31T05:15:55;8.60;99.90
37410;DHT22;23275;48.914;12.566;2022-10-31T05:18:21;8.60;99.90
37410;DHT22;23275;48.914;12.566;2022-10-31T05:20:46;8.60;99.90
37410;DHT22;23275;48.914;12.566;2022-10-31T05:23:12;8.60;99.90
37410;DHT22;23275;48.914;12.566;2022-10-31T05:25:39;8.60;99.90
37410;DHT22;23275;48.914;12.566;2022-10-31T05:28:06;8.50;99.90
37410;DHT22;23275;48.914;12.566;2022-10-31T05:30:32;8.50;99.90
37410;DHT22;23275;48.914;12.566;2022-10-31T05:32:58;8.50;99.90
37410;DHT22;23275;48.914;12.566;2022-10-31T05:35:29;8.50;99.90
37410;DHT22;23275;48.914;12.566;2022-10-31T05:37:55;8.60;99.90
37410;DHT22;23275;48.914;12.566;2022-10-31T05:40:21;8.60;99.90
37410;DHT22;23275;48.914;12.566;2022-10-31T05:42:47;8.60;99.90
37410;DHT22;23275;48.914;12.566;2022-10-31T05:45:17;8.60;99.90
37410;DHT22;23275;48.914;12.566;2022-10-31T05:47:58;8.50;99.90
37410;DHT22;23275;48.914;12.566;2022-10-31T05:50:26;8.50;99.90
37410;DHT22;23275;48.914;12.566;2022-10-31T05:53:03;8.50;99.90
37410;DHT22;23275;48.914;12.566;2022-10-31T05:55:30;8.50;99.90
37410;DHT22;23275;48.914;12.566;2022-10-31T05:57:56;8.50;99.90
37410;DHT22;23275;48.914;12.566;2022-10-31T06:00:23;8.60;99.90
37410;DHT22;23275;48.914;12.566;2022-10-31T06:02:48;8.50;99.90
37410;DHT22;23275;48.914;12.566;2022-10-31T06:05:15;8.60;99.90
37410;DHT22;23275;48.914;12.566;2022-10-31T06:07:41;8.60;99.90
37410;DHT22;23275;48.914;12.566;2022-10-31T06:10:08;8.60;99.90
37410;DHT22;23275;48.914;12.566;2022-10-31T06:12:35;8.60;99.90
37410;DHT22;23275;48.914;12.566;2022-10-31T06:15:07;8.60;99.90
37410;DHT22;23275;48.914;12.566;2022-10-31T06:17:33;8.60;99.90
37410;DHT22;23275;48.914;12.566;2022-10-31T06:19:59;8.60;99.90
37410;DHT22;23275;48.914;12.566;2022-10-31T06:22:24;8.60;99.90
37410;DHT22;23275;48.914;12.566;2022-10-31T06:24:50;8.60;99.90
37410;DHT22;23275;48.914;12.566;2022-10-31T06:27:16;8.70;99.90
37410;DHT22;23275;48.914;12.566;2022-10-31T06:29:41;8.70;99.90
37410;DHT22;23275;48.914;12.566;2022-10-31T06:32:10;8.70;99.90
37410;DHT22;23275;48.914;12.566;2022-10-31T06:34:35;8.80;99.90
37410;DHT22;23275;48.914;12.566;2022-10-31T06:37:01;8.90;99.90
37410;DHT22;23275;48.914;12.566;2022-10-31T06:39:26;8.90;99.90
37410;DHT22;23275;48.914;12.566;2022-10-31T06:41:52;8.90;99.90
37410;DHT22;23275;48.914;12.566;2022-10-31T06:44:18;8.90;99.90
37410;DHT22;23275;48.914;12.566;2022-10-31T06:46:45;9.00;99.90
37410;DHT22;23275;48.914;12.566;2022-10-31T06:49:10;9.00;99.90
37410;DHT22;23275;48.914;12.566;2022-10-31T06:51:36;9.10;99.90
37410;DHT22;23275;48.914;12.566;2022-10-31T06:54:02;9.10;99.90
37410;DHT22;23275;48.914;12.566;2022-10-31T06:56:27;9.10;99.90
37410;DHT22;23275;48.914;12.566;2022-10-31T06:58:53;9.20;99.90
37410;DHT22;23275;48.914;12.566;2022-10-31T07:01:18;9.20;99.90
37410;DHT22;23275;48.914;12.566;2022-10-31T07:03:44;9.20;99.90
37410;DHT22;23275;48.914;12.566;2022-10-31T07:06:09;9.10;99.90
37410;DHT22;23275;48.914;12.566;2022-10-31T07:08:35;9.10;99.90
37410;DHT22;23275;48.914;12.566;2022-10-31T07:11:00;9.10;99.90
37410;DHT22;23275;48.914;12.566;2022-10-31T07:13:26;9.20;99.90
37410;DHT22;23275;48.914;12.566;2022-10-31T07:15:54;9.10;99.90
37410;DHT22;23275;48.914;12.566;2022-10-31T07:18:20;9.20;99.90
37410;DHT22;23275;48.914;12.566;2022-10-31T07:20:47;9.30;99.90
37410;DHT22;23275;48.914;12.566;2022-10-31T07:23:12;9.30;99.90
37410;DHT22;23275;48.914;12.566;2022-10-31T07:25:39;9.30;99.90
37410;DHT22;23275;48.914;12.566;2022-10-31T07:28:05;9.30;99.90
37410;DHT22;23275;48.914;12.566;2022-10-31T07:30:31;9.40;99.90
37410;DHT22;23275;48.914;12.566;2022-10-31T07:32:56;9.40;99.90
37410;DHT22;23275;48.914;12.566;2022-10-31T07:35:24;9.40;99.90
37410;DHT22;23275;48.914;12.566;2022-10-31T07:37:51;9.50;99.90
37410;DHT22;23275;48.914;12.566;2022-10-31T07:40:17;9.50;99.90
37410;DHT22;23275;48.914;12.566;2022-10-31T07:42:46;9.60;99.90
37410;DHT22;23275;48.914;12.566;2022-10-31T07:45:15;9.70;99.90
37410;DHT22;23275;48.914;12.566;2022-10-31T07:47:42;9.70;99.90
37410;DHT22;23275;48.914;12.566;2022-10-31T07:50:10;9.70;99.90
37410;DHT22;23275;48.914;12.566;2022-10-31T07:52:35;9.70;99.90
37410;DHT22;23275;48.914;12.566;2022-10-31T07:55:01;9.80;99.90
37410;DHT22;23275;48.914;12.566;2022-10-31T07:57:28;9.70;99.90
37410;DHT22;23275;48.914;12.566;2022-10-31T07:59:54;9.70;99.90
37410;DHT22;23275;48.914;12.566;2022-10-31T08:02:19;9.70;99.90
37410;DHT22;23275;48.914;12.566;2022-10-31T08:04:45;9.80;99.90
37410;DHT22;23275;48.914;12.566;2022-10-31T08:07:11;9.90;99.90
37410;DHT22;23275;48.914;12.566;2022-10-31T08:09:36;9.90;99.90
37410;DHT22;23275;48.914;12.566;2022-10-31T08:12:02;9.80;99.90
37410;DHT22;23275;48.914;12.566;2022-10-31T08:14:28;9.80;99.90
37410;DHT22;23275;48.914;12.566;2022-10-31T08:16:54;9.80;99.90
37410;DHT22;23275;48.914;12.566;2022-10-31T08:19:19;9.90;99.90
37410;DHT22;23275;48.914;12.566;2022-10-31T08:21:45;10.00;99.90
37410;DHT22;23275;48.914;12.566;2022-10-31T08:24:11;10.00;99.90
37410;DHT22;23275;48.914;12.566;2022-10-31T08:26:37;10.00;99.90
37410;DHT22;23275;48.914;12.566;2022-10-31T08:29:03;10.00;99.90
37410;DHT22;23275;48.914;12.566;2022-10-31T08:31:28;10.10;99.90
37410;DHT22;23275;48.914;12.566;2022-10-31T08:33:54;10.20;99.90
37410;DHT22;23275;48.914;12.566;2022-10-31T08:36:20;10.20;99.90
37410;DHT22;23275;48.914;12.566;2022-10-31T08:38:47;10.30;99.90
37410;DHT22;23275;48.914;12.566;2022-10-31T08:41:13;10.30;99.90
37410;DHT22;23275;48.914;12.566;2022-10-31T08:43:38;10.30;99.90
37410;DHT22;23275;48.914;12.566;2022-10-31T08:46:04;10.30;99.90
37410;DHT22;23275;48.914;12.566;2022-10-31T08:48:30;10.30;99.90
37410;DHT22;23275;48.914;12.566;2022-10-31T08:50:57;10.40;99.90
37410;DHT22;23275;48.914;12.566;2022-10-31T08:53:23;10.30;99.90
37410;DHT22;23275;48.914;12.566;2022-10-31T08:55:49;10.20;99.90
37410;DHT22;23275;48.914;12.566;2022-10-31T08:58:17;10.20;99.90
37410;DHT22;23275;48.914;12.566;2022-10-31T09:00:43;10.30;99.90
37410;DHT22;23275;48.914;12.566;2022-10-31T09:03:12;10.40;99.90
37410;DHT22;23275;48.914;12.566;2022-10-31T09:05:38;10.40;99.90
37410;DHT22;23275;48.914;12.566;2022-10-31T09:08:05;10.60;99.90
37410;DHT22;23275;48.914;12.566;2022-10-31T09:10:32;10.50;99.90
37410;DHT22;23275;48.914;12.566;2022-10-31T09:13:00;10.60;99.90
37410;DHT22;23275;48.914;12.566;2022-10-31T09:15:27;10.90;99.90
37410;DHT22;23275;48.914;12.566;2022-10-31T09:17:53;11.00;99.90
37410;DHT22;23275;48.914;12.566;2022-10-31T09:20:19;11.00;99.90
37410;DHT22;23275;48.914;12.566;2022-10-31T09:22:45;11.10;99.90
37410;DHT22;23275;48.914;12.566;2022-10-31T09:25:11;11.20;99.90
37410;DHT22;23275;48.914;12.566;2022-10-31T09:27:37;11.30;99.90
37410;DHT22;23275;48.914;12.566;2022-10-31T09:30:03;11.30;99.90
37410;DHT22;23275;48.914;12.566;2022-10-31T09:32:29;11.30;99.90
37410;DHT22;23275;48.914;12.566;2022-10-31T09:34:54;11.20;99.90
37410;DHT22;23275;48.914;12.566;2022-10-31T09:37:20;11.20;99.90
37410;DHT22;23275;48.914;12.566;2022-10-31T09:39:45;11.10;99.90
37410;DHT22;23275;48.914;12.566;2022-10-31T09:45:07;11.30;99.90
37410;DHT22;23275;48.914;12.566;2022-10-31T09:50:27;11.50;99.90
37410;DHT22;23275;48.914;12.566;2022-10-31T09:53:00;11.40;99.90
37410;DHT22;23275;48.914;12.566;2022-10-31T09:55:31;11.40;99.90
37410;DHT22;23275;48.914;12.566;2022-10-31T09:58:01;11.50;99.90
37410;DHT22;23275;48.914;12.566;2022-10-31T10:00:27;11.60;99.90
37410;DHT22;23275;48.914;12.566;2022-10-31T10:03:13;11.70;99.90
37410;DHT22;23275;48.914;12.566;2022-10-31T10:06:27;11.80;99.90
37410;DHT22;23275;48.914;12.566;2022-10-31T10:08:55;11.80;99.90
37410;DHT22;23275;48.914;12.566;2022-10-31T10:11:30;11.80;99.90
37410;DHT22;23275;48.914;12.566;2022-10-31T10:14:08;11.80;99.90
37410;DHT22;23275;48.914;12.566;2022-10-31T10:17:15;11.80;99.90
37410;DHT22;23275;48.914;12.566;2022-10-31T10:23:01;12.00;99.90
37410;DHT22;23275;48.914;12.566;2022-10-31T10:25:37;12.10;99.90
37410;DHT22;23275;48.914;12.566;2022-10-31T10:28:26;12.20;99.90
37410;DHT22;23275;48.914;12.566;2022-10-31T10:30:55;12.20;99.90
37410;DHT22;23275;48.914;12.566;2022-10-31T10:33:35;12.20;99.90
37410;DHT22;23275;48.914;12.566;2022-10-31T10:36:30;12.30;99.90
37410;DHT22;23275;48.914;12.566;2022-10-31T10:39:14;12.30;99.90
37410;DHT22;23275;48.914;12.566;2022-10-31T10:41:44;12.30;99.90
37410;DHT22;23275;48.914;12.566;2022-10-31T10:44:10;12.40;99.90
37410;DHT22;23275;48.914;12.566;2022-10-31T10:46:45;12.40;99.90
37410;DHT22;23275;48.914;12.566;2022-10-31T11:00:18;12.60;99.90
37410;DHT22;23275;48.914;12.566;2022-10-31T11:02:44;12.70;99.90
37410;DHT22;23275;48.914;12.566;2022-10-31T11:05:20;12.70;99.90
37410;DHT22;23275;48.914;12.566;2022-10-31T11:07:47;12.70;99.90
37410;DHT22;23275;48.914;12.566;2022-10-31T11:10:15;12.80;99.90
37410;DHT22;23275;48.914;12.566;2022-10-31T11:12:41;13.00;99.90
37410;DHT22;23275;48.914;12.566;2022-10-31T11:15:22;13.10;99.90
37410;DHT22;23275;48.914;12.566;2022-10-31T11:17:51;13.10;99.90
37410;DHT22;23275;48.914;12.566;2022-10-31T11:22:44;13.30;99.90
37410;DHT22;23275;48.914;12.566;2022-10-31T11:28:01;13.30;99.90
37410;DHT22;23275;48.914;12.566;2022-10-31T11:30:28;13.30;99.90
37410;DHT22;23275;48.914;12.566;2022-10-31T11:32:54;13.30;99.90
37410;DHT22;23275;48.914;12.566;2022-10-31T11:35:22;13.20;99.90
37410;DHT22;23275;48.914;12.566;2022-10-31T11:37:51;13.20;99.90
37410;DHT22;23275;48.914;12.566;2022-10-31T11:40:24;13.30;99.90
37410;DHT22;23275;48.914;12.566;2022-10-31T11:42:52;13.40;99.90
37410;DHT22;23275;48.914;12.566;2022-10-31T11:45:31;13.50;99.90
37410;DHT22;23275;48.914;12.566;2022-10-31T11:48:00;13.70;99.90
37410;DHT22;23275;48.914;12.566;2022-10-31T11:52:54;13.60;99.90
37410;DHT22;23275;48.914;12.566;2022-10-31T11:55:35;13.50;99.90
37410;DHT22;23275;48.914;12.566;2022-10-31T11:58:01;13.40;99.90
37410;DHT22;23275;48.914;12.566;2022-10-31T12:00:35;13.40;99.90
37410;DHT22;23275;48.914;12.566;2022-10-31T12:06:12;13.30;99.90
37410;DHT22;23275;48.914;12.566;2022-10-31T12:08:40;13.30;99.90
37410;DHT22;23275;48.914;12.566;2022-10-31T12:21:59;13.50;99.90
37410;DHT22;23275;48.914;12.566;2022-10-31T12:24:49;13.50;99.90
37410;DHT22;23275;48.914;12.566;2022-10-31T12:30:21;13.90;99.90
37410;DHT22;23275;48.914;12.566;2022-10-31T12:35:45;14.30;99.90
37410;DHT22;23275;48.914;12.566;2022-10-31T12:49:33;14.00;99.90
37410;DHT22;23275;48.914;12.566;2022-10-31T12:54:55;14.20;99.90
37410;DHT22;23275;48.914;12.566;2022-10-31T12:57:25;14.30;99.90
37410;DHT22;23275;48.914;12.566;2022-10-31T12:59:57;14.30;99.90
37410;DHT22;23275;48.914;12.566;2022-10-31T13:07:39;14.30;99.90
37410;DHT22;23275;48.914;12.566;2022-10-31T13:12:39;14.40;99.90
37410;DHT22;23275;48.914;12.566;2022-10-31T13:15:15;14.40;99.90
37410;DHT22;23275;48.914;12.566;2022-10-31T13:17:51;14.40;99.90
37410;DHT22;23275;48.914;12.566;2022-10-31T13:20:31;14.40;99.90
37410;DHT22;23275;48.914;12.566;2022-10-31T13:23:18;14.30;99.90
37410;DHT22;23275;48.914;12.566;2022-10-31T13:25:51;14.30;99.90
37410;DHT22;23275;48.914;12.566;2022-10-31T13:28:47;14.30;99.90
37410;DHT22;23275;48.914;12.566;2022-10-31T13:31:14;14.20;99.90
37410;DHT22;23275;48.914;12.566;2022-10-31T13:34:08;14.10;99.90
37410;DHT22;23275;48.914;12.566;2022-10-31T13:36:42;14.10;99.90
37410;DHT22;23275;48.914;12.566;2022-10-31T13:39:48;13.90;99.90
37410;DHT22;23275;48.914;12.566;2022-10-31T13:45:17;13.80;99.90
37410;DHT22;23275;48.914;12.566;2022-10-31T13:47:54;13.70;99.90
37410;DHT22;23275;48.914;12.566;2022-10-31T13:50:26;13.70;99.90
37410;DHT22;23275;48.914;12.566;2022-10-31T13:53:02;13.70;99.90
37410;DHT22;23275;48.914;12.566;2022-10-31T13:55:49;13.80;99.90
37410;DHT22;23275;48.914;12.566;2022-10-31T13:58:26;13.70;99.90
37410;DHT22;23275;48.914;12.566;2022-10-31T14:01:19;13.70;99.90
37410;DHT22;23275;48.914;12.566;2022-10-31T14:03:47;13.70;99.90
37410;DHT22;23275;48.914;12.566;2022-10-31T14:06:19;13.70;99.90
37410;DHT22;23275;48.914;12.566;2022-10-31T14:08:50;13.70;99.90
37410;DHT22;23275;48.914;12.566;2022-10-31T14:11:24;13.70;99.90
37410;DHT22;23275;48.914;12.566;2022-10-31T14:13:52;13.70;99.90
37410;DHT22;23275;48.914;12.566;2022-10-31T14:16:22;13.70;99.90
37410;DHT22;23275;48.914;12.566;2022-10-31T14:19:35;13.70;99.90
37410;DHT22;23275;48.914;12.566;2022-10-31T14:21:41;13.70;99.90
37410;DHT22;23275;48.914;12.566;2022-10-31T14:24:29;13.70;99.90
37410;DHT22;23275;48.914;12.566;2022-10-31T14:27:30;13.70;99.90
37410;DHT22;23275;48.914;12.566;2022-10-31T14:29:49;13.70;99.90
37410;DHT22;23275;48.914;12.566;2022-10-31T14:32:23;13.70;99.90
37410;DHT22;23275;48.914;12.566;2022-10-31T14:34:55;13.50;99.90
37410;DHT22;23275;48.914;12.566;2022-10-31T14:37:49;13.40;99.90
37410;DHT22;23275;48.914;12.566;2022-10-31T14:49:06;13.20;99.90
37410;DHT22;23275;48.914;12.566;2022-10-31T14:51:40;13.10;99.90
37410;DHT22;23275;48.914;12.566;2022-10-31T14:54:12;13.10;99.90
37410;DHT22;23275;48.914;12.566;2022-10-31T14:56:46;13.10;99.90
37410;DHT22;23275;48.914;12.566;2022-10-31T14:59:15;13.10;99.90
37410;DHT22;23275;48.914;12.566;2022-10-31T15:01:54;13.10;99.90
37410;DHT22;23275;48.914;12.566;2022-10-31T15:04:24;13.10;99.90
37410;DHT22;23275;48.914;12.566;2022-10-31T15:06:58;13.00;99.90
37410;DHT22;23275;48.914;12.566;2022-10-31T15:09:33;12.90;99.90
37410;DHT22;23275;48.914;12.566;2022-10-31T15:12:00;12.90;99.90
37410;DHT22;23275;48.914;12.566;2022-10-31T15:14:28;12.90;99.90
37410;DHT22;23275;48.914;12.566;2022-10-31T15:16:57;12.80;99.90
37410;DHT22;23275;48.914;12.566;2022-10-31T15:19:25;12.70;99.90
37410;DHT22;23275;48.914;12.566;2022-10-31T15:21:53;12.60;99.90
37410;DHT22;23275;48.914;12.566;2022-10-31T15:24:19;12.60;99.90
37410;DHT22;23275;48.914;12.566;2022-10-31T15:26:48;12.60;99.90
37410;DHT22;23275;48.914;12.566;2022-10-31T15:29:18;12.60;99.90
37410;DHT22;23275;48.914;12.566;2022-10-31T15:31:54;12.60;99.90
37410;DHT22;23275;48.914;12.566;2022-10-31T15:36:54;12.50;99.90
37410;DHT22;23275;48.914;12.566;2022-10-31T15:39:20;12.50;99.90
37410;DHT22;23275;48.914;12.566;2022-10-31T15:41:53;12.50;99.90
37410;DHT22;23275;48.914;12.566;2022-10-31T15:46:54;12.50;99.90
37410;DHT22;23275;48.914;12.566;2022-10-31T15:49:47;12.40;99.90
37410;DHT22;23275;48.914;12.566;2022-10-31T15:54:57;12.30;99.90
37410;DHT22;23275;48.914;12.566;2022-10-31T15:57:24;12.20;99.90
37410;DHT22;23275;48.914;12.566;2022-10-31T15:59:52;12.20;99.90
37410;DHT22;23275;48.914;12.566;2022-10-31T16:02:26;12.10;99.90
37410;DHT22;23275;48.914;12.566;2022-10-31T16:05:01;12.20;99.90
37410;DHT22;23275;48.914;12.566;2022-10-31T16:07:28;12.10;99.90
37410;DHT22;23275;48.914;12.566;2022-10-31T16:09:59;12.00;99.90
37410;DHT22;23275;48.914;12.566;2022-10-31T16:12:37;12.00;99.90
37410;DHT22;23275;48.914;12.566;2022-10-31T16:15:13;12.00;99.90
37410;DHT22;23275;48.914;12.566;2022-10-31T16:17:41;12.00;99.90
37410;DHT22;23275;48.914;12.566;2022-10-31T16:20:25;11.90;99.90
37410;DHT22;23275;48.914;12.566;2022-10-31T16:22:51;11.80;99.90
37410;DHT22;23275;48.914;12.566;2022-10-31T16:25:29;11.80;99.90
37410;DHT22;23275;48.914;12.566;2022-10-31T16:28:00;11.80;99.90
37410;DHT22;23275;48.914;12.566;2022-10-31T16:30:36;11.80;99.90
37410;DHT22;23275;48.914;12.566;2022-10-31T16:35:48;11.80;99.90
37410;DHT22;23275;48.914;12.566;2022-10-31T16:38:14;11.60;99.90
37410;DHT22;23275;48.914;12.566;2022-10-31T16:40:40;11.70;99.90
37410;DHT22;23275;48.914;12.566;2022-10-31T16:43:13;11.60;99.90
37410;DHT22;23275;48.914;12.566;2022-10-31T16:45:44;11.60;99.90
37410;DHT22;23275;48.914;12.566;2022-10-31T16:48:13;11.60;99.90
37410;DHT22;23275;48.914;12.566;2022-10-31T16:50:40;11.50;99.90
37410;DHT22;23275;48.914;12.566;2022-10-31T16:53:06;11.50;99.90
37410;DHT22;23275;48.914;12.566;2022-10-31T16:55:31;11.50;99.90
37410;DHT22;23275;48.914;12.566;2022-10-31T16:58:01;11.50;99.90
37410;DHT22;23275;48.914;12.566;2022-10-31T17:00:27;11.40;99.90
37410;DHT22;23275;48.914;12.566;2022-10-31T17:02:55;11.40;99.90
37410;DHT22;23275;48.914;12.566;2022-10-31T17:05:22;11.40;99.90
37410;DHT22;23275;48.914;12.566;2022-10-31T17:07:56;11.40;99.90
37410;DHT22;23275;48.914;12.566;2022-10-31T17:10:23;11.30;99.90
37410;DHT22;23275;48.914;12.566;2022-10-31T17:12:49;11.30;99.90
37410;DHT22;23275;48.914;12.566;2022-10-31T17:15:21;11.30;99.90
37410;DHT22;23275;48.914;12.566;2022-10-31T17:17:48;11.20;99.90
37410;DHT22;23275;48.914;12.566;2022-10-31T17:20:18;11.20;99.90
37410;DHT22;23275;48.914;12.566;2022-10-31T17:22:44;11.10;99.90
37410;DHT22;23275;48.914;12.566;2022-10-31T17:25:21;11.00;99.90
37410;DHT22;23275;48.914;12.566;2022-10-31T17:27:48;11.00;99.90
37410;DHT22;23275;48.914;12.566;2022-10-31T17:30:14;10.90;99.90
37410;DHT22;23275;48.914;12.566;2022-10-31T17:32:40;11.00;99.90
37410;DHT22;23275;48.914;12.566;2022-10-31T17:35:08;10.90;99.90
37410;DHT22;23275;48.914;12.566;2022-10-31T17:37:34;10.90;99.90
37410;DHT22;23275;48.914;12.566;2022-10-31T17:39:59;10.90;99.90